x

Buoy E01 - Central Maine Shelf (44032) Wave Buoy

3:04pm - Wed 29th Mar 2017 All times are EDT. -4 hours from GMT.

  • Sig Wave height 3.0ft
  • Peak Period 5s
  • Wind
    4mph, 7mph gusts
  • Sea Temp 40°f
  • Air Temp 38°f
  • Sea Pressure 1015.2mb
  • Buoy E01 - Central Maine Shelf
  • Buoy E01 - Central Maine Shelf

More Historic Weather Station data

Upgrade to MSW Pro to gain access to the past 30 days of data for over 8000 Wavebouys and Weather Stations around the globe.

Join Pro

Comparision Forecast

View Surf forecast
   
Wed 03/29 3:04pm 3ft 5s 4 7 mph 1015.2mb 40f 38f
2:04pm 2.5ft 6s 7
mph
1015.2mb 40f 38f
1:04pm 3.5ft 8s 7 9 mph 1015.1mb 40f 38f
12:04pm 3ft 6s 7
mph
1015.5mb 39f 38f
11:04am 3.5ft 6s 13 16 mph 1015.5mb 39f 37f
10:04am 3.5ft 6s 13 18 mph 1015.3mb 39f 36f
9:04am 4ft 8s 16 18 mph 1015.3mb 38f 35f
8:04am 3.5ft 6s 16 18 mph 1015.7mb 38f 35f
7:04am 4ft 8s 16 18 mph 1015.4mb 38f 35f
6:04am 3ft 8s 13 16 mph 1015.1mb 38f 35f
5:04am 3.5ft 8s 13 16 mph 1014.6mb 38f 35f
4:04am 3ft 8s 13 16 mph 1014.4mb 39f 35f
3:04am 3ft 8s 13 16 mph 1014.4mb 39f 35f
2:04am 2.5ft 8s 11 13 mph 1014.4mb 39f 35f
1:04am 3.5ft 6s 13
mph
1015.1mb 39f 35f
12:04am 3.5ft 6s 11
mph
1015.2mb 39f 36f
Tue 03/28 11:04pm 4.5ft 8s 9 11 mph 1015.3mb 39f 36f
10:04pm 3.5ft 8s 9
mph
1015.4mb 39f 36f
9:04pm 3.5ft 8s 9
mph
1015.7mb 38f 36f
8:04pm 3.5ft 8s 9
mph
1015.8mb 38f 36f
7:04pm 3.5ft 6s 9 11 mph 1015.9mb 38f 36f
6:04pm 3.5ft 6s 11 13 mph 1015.9mb 38f 35f
5:04pm 3.5ft 8s 11 13 mph 1015.9mb 38f 35f
4:04pm 3.5ft 8s 11 13 mph 1016.1mb 38f 35f
10:04am 4ft 8s 9 11 mph 1017.3mb 39f 34f
9:04am 4.5ft 8s 11 13 mph 1017.1mb 39f 34f
8:04am 4.5ft 6s 11 13 mph 1017.1mb 38f 33f
7:04am 4.5ft 6s 13 16 mph 1016.5mb 38f 33f
6:04am 3.5ft 6s 13 16 mph 1016.5mb 38f 33f
5:04am 4.5ft 8s 11 13 mph 1016.5mb 38f 33f
4:04am 5.5ft 8s 13
mph
1016.4mb 38f 33f
3:04am 5ft 8s 11 16 mph 1016.4mb 38f 33f
2:04am 6ft 6s 16 18 mph 1016.1mb 39f 33f
1:04am 8ft 8s 18 20 mph 1015.5mb 40f 34f
12:04am 6ft 6s 20 22 mph 1015.4mb 40f 34f
Mon 03/27 11:04pm 8ft 8s 20 25 mph 1015.4mb 39f 34f
10:04pm 7ft 6s 22 27 mph 1015.8mb 40f 35f
9:04pm 8ft 8s 22 27 mph 1015.7mb 39f 35f
8:04pm 7ft 8s 20 25 mph 1016.3mb 39f 35f
7:04pm 9ft 8s 25 27 mph 1016.2mb 39f 35f
6:04pm 9ft 8s 25 29 mph 1016.9mb 39f 35f
5:04pm 7ft 6s 22 27 mph 1017.9mb 39f 35f
4:04pm 7.5ft 6s 18 22 mph 1019.5mb 39f 36f
3:04pm 6.5ft 6s 22 27 mph 1019.5mb 39f 36f
2:04pm 5ft 6s 25 29 mph 1020.5mb 39f 35f
1:04pm 5ft 5s 27 31 mph 1021.4mb 39f 35f
12:04pm 4.5ft 5s 20 25 mph 1023.2mb 39f 37f
11:04am 4ft 5s 18 20 mph 1024.2mb 39f 36f
10:04am 4ft 5s 20 25 mph 1024.7mb 39f 36f
9:04am 3.5ft 4s 18 22 mph 1025.5mb 38f 36f
8:04am 2.5ft 4s 18 20 mph 1026.2mb 37f 36f
7:04am 2.5ft 3s 16 20 mph 1026.6mb 37f 36f
6:04am 2ft 8s 16 18 mph 1027.4mb 38f 36f
5:04am 1.6ft 8s 11 13 mph 1027.9mb 37f 36f
4:04am 1.6ft 8s 9 13 mph 1028.5mb 37f 35f
3:04am 0.7ft  -  9 11 mph 1029.2mb 37f 35f
2:04am 0.7ft  -  7 9 mph 1029.8mb 38f 35f
1:04am 1.6ft 8s 9 11 mph 1030.1mb 38f 35f
12:04am 1.3ft 8s 9 11 mph 1030.4mb 38f 34f
Sun 03/26 11:04pm 1.6ft 6s 7 9 mph 1030.9mb 38f 34f
10:04pm 2ft 8s 9 11 mph 1031.6mb 38f 34f
9:04pm 2ft 8s 7 9 mph 1032.2mb 38f 33f
8:04pm 2ft 8s 11 13 mph 1032.8mb 38f 33f
7:04pm 2ft 8s 9 13 mph 1033.2mb 38f 33f
6:04pm 2.5ft 8s 9 11 mph 1033.5mb 38f 32f
5:04pm 2ft 8s 9
mph
1033.1mb 38f 32f
4:04pm 2.5ft 8s 9 11 mph 1033.3mb 38f 31f
3:04pm 2.5ft 8s 9 11 mph 1034.1mb 38f 31f
2:04pm 2.5ft 6s 9 11 mph 1034.5mb 38f 30f
1:04pm 2.5ft 11s 7 9 mph 1035.1mb 38f 29f
12:04pm 2.5ft 6s 9 11 mph 1035.7mb 38f 29f
11:04am 3ft 8s 11 16 mph 1035.6mb 38f 29f
10:04am 3.5ft 8s 16 20 mph 1035.4mb 37f 29f
9:04am 2.5ft 4s 16 18 mph 1035.4mb 37f 29f
8:04am 3ft 8s 18 20 mph 1035mb 37f 30f
7:04am 2.5ft 8s 18 22 mph 1034.3mb 37f 30f
6:04am 1.6ft 3s 18 20 mph 1033.9mb 37f 32f
5:04am 2.5ft 8s 16 18 mph 1033.2mb 37f 32f
4:04am 2.5ft 8s 16 18 mph 1032.2mb 37f 33f
3:04am 2ft 3s 18 22 mph 1031.5mb 37f 34f
2:04am 3.5ft 3s 20 22 mph 1030.6mb 37f 35f
1:04am 3.5ft 8s 20 22 mph 1030.4mb 37f 36f
12:04am 3ft 8s 16 18 mph 1030.1mb 37f 37f
Sat 03/25 11:04pm 2.5ft 8s 13 16 mph 1029.1mb 37f 37f
10:04pm 3.5ft 8s 11 13 mph 1028.3mb 37f 37f
9:04pm 2.5ft 8s 11 13 mph 1027.6mb 37f 37f